Time;durP1;ratioP1;P1;durP2;ratioP2;P2;SDS_P1;SDS_P2;PMS_P1;PMS_P2;Temp;Humidity;BMP_temperature;BMP_pressure;BME280_temperature;BME280_humidity;BME280_pressure;Samples;Min_cycle;Max_cycle;Signal;HPM_P1;HPM_P2
2019/12/24 00:01:57;;;;;;;4.8;3.6;;;;;;;;;;;;;
2019/12/24 00:04:19;;;;;;;4.1;2.9;;;;;;;;;;;;;
2019/12/24 00:06:45;;;;;;;4.9;2.9;;;;;;;;;;;;;
2019/12/24 00:09:10;;;;;;;4.2;2.6;;;;;;;;;;;;;
2019/12/24 00:11:37;;;;;;;4.6;3.3;;;;;;;;;;;;;
2019/12/24 00:14:02;;;;;;;3.8;3;;;;;;;;;;;;;
2019/12/24 00:16:26;;;;;;;6.1;3;;;;;;;;;;;;;
2019/12/24 00:18:52;;;;;;;3.2;1.9;;;;;;;;;;;;;
2019/12/24 00:21:19;;;;;;;3.3;2.1;;;;;;;;;;;;;
2019/12/24 00:23:43;;;;;;;3.4;2.1;;;;;;;;;;;;;
2019/12/24 00:26:09;;;;;;;3.6;2.5;;;;;;;;;;;;;
2019/12/24 00:28:32;;;;;;;3.1;2.3;;;;;;;;;;;;;
2019/12/24 00:31:00;;;;;;;3.7;2.3;;;;;;;;;;;;;
2019/12/24 00:33:25;;;;;;;3.1;2.1;;;;;;;;;;;;;
2019/12/24 00:35:49;;;;;;;3.3;2.2;;;;;;;;;;;;;
2019/12/24 00:38:15;;;;;;;3.2;1.8;;;;;;;;;;;;;
2019/12/24 00:40:39;;;;;;;2.9;1.8;;;;;;;;;;;;;
2019/12/24 00:43:10;;;;;;;3.3;2.1;;;;;;;;;;;;;
2019/12/24 00:45:36;;;;;;;2.8;1.6;;;;;;;;;;;;;
2019/12/24 00:48:00;;;;;;;2.9;1.9;;;;;;;;;;;;;
2019/12/24 00:50:26;;;;;;;3.3;2.2;;;;;;;;;;;;;
2019/12/24 00:52:51;;;;;;;2.7;1.9;;;;;;;;;;;;;
2019/12/24 00:55:14;;;;;;;2.9;2.2;;;;;;;;;;;;;
2019/12/24 00:57:43;;;;;;;2.7;2;;;;;;;;;;;;;
2019/12/24 01:00:08;;;;;;;2.3;1.9;;;;;;;;;;;;;
2019/12/24 01:02:35;;;;;;;3.2;2.1;;;;;;;;;;;;;
2019/12/24 01:04:58;;;;;;;3.7;2.1;;;;;;;;;;;;;
2019/12/24 01:07:23;;;;;;;3.4;2.3;;;;;;;;;;;;;
2019/12/24 01:09:47;;;;;;;3.5;2;;;;;;;;;;;;;
2019/12/24 01:12:12;;;;;;;2.1;1.7;;;;;;;;;;;;;
2019/12/24 01:14:41;;;;;;;1.9;1.3;;;;;;;;;;;;;
2019/12/24 01:17:04;;;;;;;1.6;1.1;;;;;;;;;;;;;
2019/12/24 01:19:29;;;;;;;1.6;0.9;;;;;;;;;;;;;
2019/12/24 01:21:57;;;;;;;1.8;1;;;;;;;;;;;;;
2019/12/24 01:24:20;;;;;;;1.3;1;;;;;;;;;;;;;
2019/12/24 01:26:59;;;;;;;1.9;1.1;;;;;;;;;;;;;
2019/12/24 01:29:11;;;;;;;1.5;1.1;;;;;;;;;;;;;
2019/12/24 01:31:35;;;;;;;2.4;1.4;;;;;;;;;;;;;
2019/12/24 01:34:10;;;;;;;2.3;1.3;;;;;;;;;;;;;
2019/12/24 01:36:31;;;;;;;1.5;1.3;;;;;;;;;;;;;
2019/12/24 01:38:52;;;;;;;2.3;1.3;;;;;;;;;;;;;
2019/12/24 01:41:19;;;;;;;2.5;1.4;;;;;;;;;;;;;
2019/12/24 01:43:45;;;;;;;2;1.5;;;;;;;;;;;;;
2019/12/24 01:46:11;;;;;;;1.9;1.6;;;;;;;;;;;;;
2019/12/24 01:48:38;;;;;;;2.6;1.6;;;;;;;;;;;;;
2019/12/24 01:51:03;;;;;;;2.8;1.7;;;;;;;;;;;;;
2019/12/24 01:53:33;;;;;;;2.3;1.6;;;;;;;;;;;;;
2019/12/24 01:55:55;;;;;;;2.6;1.5;;;;;;;;;;;;;
2019/12/24 01:58:18;;;;;;;2;1.3;;;;;;;;;;;;;
2019/12/24 02:00:44;;;;;;;1.8;1.4;;;;;;;;;;;;;
2019/12/24 02:03:08;;;;;;;1.7;1.2;;;;;;;;;;;;;
2019/12/24 02:05:37;;;;;;;2.4;1.1;;;;;;;;;;;;;
2019/12/24 02:08:01;;;;;;;1.6;0.9;;;;;;;;;;;;;
2019/12/24 02:10:24;;;;;;;1.4;1;;;;;;;;;;;;;
2019/12/24 02:12:49;;;;;;;2.4;1.2;;;;;;;;;;;;;
2019/12/24 02:15:14;;;;;;;1.3;1.1;;;;;;;;;;;;;
2019/12/24 02:17:42;;;;;;;2.4;1.3;;;;;;;;;;;;;
2019/12/24 02:20:07;;;;;;;1.9;1.1;;;;;;;;;;;;;
2019/12/24 02:22:34;;;;;;;1.9;1.1;;;;;;;;;;;;;
2019/12/24 02:25:00;;;;;;;1.9;1.2;;;;;;;;;;;;;
2019/12/24 02:27:25;;;;;;;1.5;1.3;;;;;;;;;;;;;
2019/12/24 02:29:49;;;;;;;1.8;1.3;;;;;;;;;;;;;
2019/12/24 02:32:18;;;;;;;2;1.3;;;;;;;;;;;;;
2019/12/24 02:34:42;;;;;;;1.3;1;;;;;;;;;;;;;
2019/12/24 02:37:08;;;;;;;1.6;1;;;;;;;;;;;;;
2019/12/24 02:39:35;;;;;;;1.8;1.2;;;;;;;;;;;;;
2019/12/24 02:42:02;;;;;;;2.4;1.3;;;;;;;;;;;;;
2019/12/24 02:44:24;;;;;;;1.8;1;;;;;;;;;;;;;
2019/12/24 02:46:49;;;;;;;1.6;0.8;;;;;;;;;;;;;
2019/12/24 02:49:14;;;;;;;1.7;0.9;;;;;;;;;;;;;
2019/12/24 02:51:39;;;;;;;1.5;0.7;;;;;;;;;;;;;
2019/12/24 02:54:08;;;;;;;1.4;0.7;;;;;;;;;;;;;
2019/12/24 02:56:31;;;;;;;2.5;0.8;;;;;;;;;;;;;
2019/12/24 02:58:55;;;;;;;1.7;0.8;;;;;;;;;;;;;
2019/12/24 03:01:24;;;;;;;1.5;1.1;;;;;;;;;;;;;
2019/12/24 03:03:47;;;;;;;1.7;1;;;;;;;;;;;;;
2019/12/24 03:06:12;;;;;;;2.2;0.9;;;;;;;;;;;;;
2019/12/24 03:08:37;;;;;;;2.2;0.9;;;;;;;;;;;;;
2019/12/24 03:11:02;;;;;;;1.9;0.8;;;;;;;;;;;;;
2019/12/24 03:13:30;;;;;;;1.4;0.8;;;;;;;;;;;;;
2019/12/24 03:15:53;;;;;;;1;0.8;;;;;;;;;;;;;
2019/12/24 03:18:20;;;;;;;1.3;0.7;;;;;;;;;;;;;
2019/12/24 03:20:50;;;;;;;0.8;0.7;;;;;;;;;;;;;
2019/12/24 03:23:11;;;;;;;1.7;0.9;;;;;;;;;;;;;
2019/12/24 03:25:36;;;;;;;1.6;0.9;;;;;;;;;;;;;
2019/12/24 03:28:01;;;;;;;2.5;0.9;;;;;;;;;;;;;
2019/12/24 03:30:34;;;;;;;2;1;;;;;;;;;;;;;
2019/12/24 03:32:58;;;;;;;1.3;0.9;;;;;;;;;;;;;
2019/12/24 03:35:26;;;;;;;2.3;0.9;;;;;;;;;;;;;
2019/12/24 03:38:03;;;;;;;1.9;1;;;;;;;;;;;;;
2019/12/24 03:40:14;;;;;;;1.8;1;;;;;;;;;;;;;
2019/12/24 03:42:39;;;;;;;2.5;1.3;;;;;;;;;;;;;
2019/12/24 03:45:03;;;;;;;2.2;1.5;;;;;;;;;;;;;
2019/12/24 03:47:35;;;;;;;2.2;1.3;;;;;;;;;;;;;
2019/12/24 03:53:02;;;;;;;1.1;0.7;;;;;;;;;;;;;
2019/12/24 03:55:28;;;;;;;1.3;0.6;;;;;;;;;;;;;
2019/12/24 03:57:52;;;;;;;1;0.7;;;;;;;;;;;;;
2019/12/24 04:02:40;;;;;;;2;0.7;;;;;;;3.86;87.00781;940.3494;;;;
2019/12/24 04:05:04;;;;;;;1.9;0.7;;;;;;;3.87;86.97656;940.1238;;;;
2019/12/24 04:07:36;;;;;;;1.3;0.7;;;;;;;3.89;86.53027;940.1552;;;;
2019/12/24 04:09:58;;;;;;;1.1;0.7;;;;;;;3.79;87.06055;940.1597;;;;
2019/12/24 04:12:31;;;;;;;1.3;0.7;;;;;;;3.7;87.0332;940.173;;;;
2019/12/24 04:15:00;;;;;;;2;0.8;;;;;;;3.67;87.47559;940.0977;;;;
2019/12/24 04:17:34;;;;;;;1.6;0.7;;;;;;;3.62;87.27344;940.2312;;;;
2019/12/24 04:20:01;;;;;;;2.4;0.9;;;;;;;3.56;87.14746;940.157;;;;
2019/12/24 04:22:30;;;;;;;1.3;0.7;;;;;;;3.46;86.53418;940.1384;;;;
2019/12/24 04:25:02;;;;;;;1.5;0.8;;;;;;;3.45;86.67773;940.1639;;;;
2019/12/24 04:27:34;;;;;;;1.5;0.7;;;;;;;3.41;86.2627;940.1448;;;;
2019/12/24 04:29:59;;;;;;;1.7;0.9;;;;;;;3.38;87.73047;940.1853;;;;
2019/12/24 04:32:30;;;;;;;1.4;0.8;;;;;;;3.32;86.94434;940.1806;;;;
2019/12/24 04:35:06;;;;;;;1.3;0.9;;;;;;;3.26;86.77441;940.2413;;;;
2019/12/24 04:37:44;;;;;;;2.8;0.9;;;;;;;3.32;87.29004;940.1308;;;;
2019/12/24 04:40:09;;;;;;;17.1;13.6;;;;;;;3.21;87.78418;940.1635;;;;
2019/12/24 04:42:46;;;;;;;25.7;19.6;;;;;;;3.26;87.9082;940.1082;;;;
2019/12/24 04:45:13;;;;;;;3.8;2.5;;;;;;;3.26;87.63867;940.1035;;;;
2019/12/24 04:48:30;;;;;;;4.8;2.5;;;;;;;3.22;87.47168;939.9689;;;;
2019/12/24 04:50:45;;;;;;;3.3;2.1;;;;;;;3.14;87.56934;940.033;;;;
2019/12/24 04:53:11;;;;;;;3.3;1.6;;;;;;;3.1;88.24316;940.1115;;;;
2019/12/24 04:55:45;;;;;;;1.6;1.1;;;;;;;3.07;88.61914;940.0992;;;;
2019/12/24 04:58:14;;;;;;;1.5;0.9;;;;;;;3.13;88.3291;939.9792;;;;
2019/12/24 05:00:38;;;;;;;1.6;0.8;;;;;;;3.13;88.31738;940.0168;;;;
2019/12/24 05:03:03;;;;;;;1.5;0.7;;;;;;;3.2;88.06348;940.0497;;;;
2019/12/24 05:05:34;;;;;;;2.1;0.8;;;;;;;3.2;87.71484;940.0524;;;;
2019/12/24 05:08:02;;;;;;;1.3;0.7;;;;;;;3.25;87.19727;940.0712;;;;
2019/12/24 05:10:28;;;;;;;1.9;0.8;;;;;;;3.25;86.71484;940.0204;;;;
2019/12/24 05:12:55;;;;;;;1;0.5;;;;;;;3.27;87.43848;940.0094;;;;
2019/12/24 05:15:21;;;;;;;3.5;0.9;;;;;;;3.19;87.27734;940.0879;;;;
2019/12/24 05:20:24;;;;;;;1.4;0.7;;;;;;;3.23;87.5166;940.1744;;;;
2019/12/24 05:22:54;;;;;;;2.7;0.6;;;;;;;3.15;87.34668;940.1429;;;;
2019/12/24 05:25:22;;;;;;;1.6;0.7;;;;;;;3.17;86.54102;940.001;;;;
2019/12/24 05:27:46;;;;;;;1.7;0.8;;;;;;;3.21;86.75195;940.088;;;;
2019/12/24 05:30:14;;;;;;;0.6;0.5;;;;;;;3.14;87.25293;940.1219;;;;
2019/12/24 05:32:43;;;;;;;2.4;0.7;;;;;;;3.03;87.52246;940.1913;;;;
2019/12/24 05:35:08;;;;;;;2.8;0.8;;;;;;;3.02;87.43164;940.0415;;;;
2019/12/24 05:37:46;;;;;;;5.8;3.3;;;;;;;2.99;87.22363;939.9433;;;;
2019/12/24 05:40:17;;;;;;;44.7;25;;;;;;;2.89;87.69727;939.9401;;;;
2019/12/24 05:42:47;;;;;;;35.8;20.3;;;;;;;2.87;87.33203;940.0012;;;;
2019/12/24 05:45:12;;;;;;;8.2;5;;;;;;;2.75;87.9043;939.9303;;;;
2019/12/24 05:47:42;;;;;;;3.7;2.3;;;;;;;2.7;87.40918;939.8479;;;;
2019/12/24 05:50:17;;;;;;;1.8;1;;;;;;;2.59;88.35254;939.8708;;;;
2019/12/24 05:52:38;;;;;;;2;0.9;;;;;;;2.59;89.09082;939.8879;;;;
2019/12/24 05:55:07;;;;;;;1.8;1;;;;;;;2.58;88.87793;939.8876;;;;
2019/12/24 05:57:35;;;;;;;2.7;1.2;;;;;;;2.58;88.25;939.8059;;;;
2019/12/24 06:00:09;;;;;;;1.8;0.7;;;;;;;2.43;88.77832;939.9219;;;;
2019/12/24 06:02:38;;;;;;;1.7;0.8;;;;;;;2.33;89.31738;940.0228;;;;
2019/12/24 06:05:08;;;;;;;2.5;0.9;;;;;;;2.39;89.23926;940.0474;;;;
2019/12/24 06:07:31;;;;;;;1.9;0.8;;;;;;;2.43;88.94629;939.9345;;;;
2019/12/24 06:10:00;;;;;;;8.3;3.9;;;;;;;2.43;88.47559;939.9606;;;;
2019/12/24 06:12:28;;;;;;;6.4;3.5;;;;;;;2.47;88.51465;940.0014;;;;
2019/12/24 06:14:56;;;;;;;9;6.1;;;;;;;2.41;88.62695;939.8717;;;;
2019/12/24 06:17:29;;;;;;;9.8;8;;;;;;;2.34;88.83789;940.0028;;;;
2019/12/24 06:20:00;;;;;;;6.5;5.7;;;;;;;2.32;88.81152;939.9511;;;;
2019/12/24 06:22:28;;;;;;;7.2;5.9;;;;;;;2.24;89.22949;939.9866;;;;
2019/12/24 06:24:58;;;;;;;8.4;6.7;;;;;;;2.18;89.25195;940.0433;;;;
2019/12/24 06:27:25;;;;;;;6.9;4.6;;;;;;;1.82;90.5625;940.0528;;;;
2019/12/24 06:29:49;;;;;;;5.4;3.2;;;;;;;1.71;91.68066;939.9414;;;;
2019/12/24 06:32:13;;;;;;;5.3;3.5;;;;;;;1.7;91.76563;939.9564;;;;
2019/12/24 06:34:44;;;;;;;5.2;4.2;;;;;;;1.85;91.24023;939.8491;;;;
2019/12/24 06:37:09;;;;;;;6.1;4.4;;;;;;;1.94;90.16309;939.8567;;;;
2019/12/24 06:39:43;;;;;;;5.3;4.3;;;;;;;2.09;89.5791;939.9045;;;;
2019/12/24 06:42:15;;;;;;;6.3;4.4;;;;;;;2.15;89.08887;939.8594;;;;
2019/12/24 06:44:36;;;;;;;7.7;6.3;;;;;;;2.21;88.96777;939.8183;;;;
2019/12/24 06:47:03;;;;;;;6.1;5.2;;;;;;;2.16;88.93457;939.8002;;;;
2019/12/24 06:49:54;;;;;;;5.1;4.6;;;;;;;2.19;88.72754;939.7541;;;;
2019/12/24 06:52:02;;;;;;;4.1;3.6;;;;;;;2.14;88.9082;939.8394;;;;
2019/12/24 06:54:29;;;;;;;3.7;2.9;;;;;;;2.18;89.13965;939.7512;;;;
2019/12/24 06:57:01;;;;;;;4.2;3.5;;;;;;;2.17;88.61133;939.6976;;;;
2019/12/24 06:59:26;;;;;;;4;3.3;;;;;;;2.14;88.57031;939.6099;;;;
2019/12/24 07:04:40;;;;;;;4.4;3.2;;;;;;;2.23;88.22168;939.6118;;;;
2019/12/24 07:07:06;;;;;;;3;2.2;;;;;;;2.14;88.71777;939.4584;;;;
2019/12/24 07:09:34;;;;;;;13.5;9.8;;;;;;;1.98;89.64453;939.3246;;;;
2019/12/24 07:12:07;;;;;;;11.1;7.2;;;;;;;2.12;89.18262;939.2933;;;;
2019/12/24 07:14:32;;;;;;;2.4;1.9;;;;;;;2.2;88.63965;939.1795;;;;
2019/12/24 07:17:04;;;;;;;2.9;1.3;;;;;;;2.03;89.53223;939.2645;;;;
2019/12/24 07:19:37;;;;;;;3;1.5;;;;;;;1.86;90.2793;939.1931;;;;
2019/12/24 07:22:06;;;;;;;3.3;2.1;;;;;;;1.97;90.33789;939.2858;;;;
2019/12/24 07:24:30;;;;;;;4;1.9;;;;;;;2.07;90.02344;939.222;;;;
2019/12/24 07:27:00;;;;;;;2.3;1.2;;;;;;;2.16;89.49414;939.1724;;;;
2019/12/24 07:29:25;;;;;;;4.1;1.5;;;;;;;2.08;89.47461;939.2679;;;;
2019/12/24 07:31:52;;;;;;;27.5;18.6;;;;;;;1.99;89.83789;939.1689;;;;
2019/12/24 07:34:22;;;;;;;36.8;23.2;;;;;;;2.05;90.23047;939.1448;;;;
2019/12/24 07:36:56;;;;;;;32;21.2;;;;;;;2.18;89.71094;939.1197;;;;
2019/12/24 07:39:27;;;;;;;68.1;20.7;;;;;;;2.31;89.82715;939.051;;;;
2019/12/24 07:41:53;;;;;;;28.8;10.4;;;;;;;2.26;90.65527;939.0111;;;;
2019/12/24 07:44:29;;;;;;;17.7;12.4;;;;;;;2.35;90.10547;939.0981;;;;
2019/12/24 07:46:53;;;;;;;15.4;11.7;;;;;;;2.41;89.56836;939.0381;;;;
2019/12/24 07:49:23;;;;;;;16.4;12.6;;;;;;;2.56;89.24121;938.9984;;;;
2019/12/24 07:51:54;;;;;;;9.9;8.1;;;;;;;2.46;88.89551;938.962;;;;
2019/12/24 07:54:20;;;;;;;9.7;7.7;;;;;;;2.56;88.45703;938.8812;;;;
2019/12/24 07:56:47;;;;;;;5.5;4.4;;;;;;;2.47;88.3584;938.9028;;;;
2019/12/24 07:59:20;;;;;;;6.2;4.7;;;;;;;2.59;88.45117;938.8165;;;;
2019/12/24 08:02:13;;;;;;;6.3;4.4;;;;;;;2.54;88.51855;938.9442;;;;
2019/12/24 08:04:38;;;;;;;7;4.7;;;;;;;2.43;88.89063;938.8339;;;;
2019/12/24 08:07:10;;;;;;;19.4;14.4;;;;;;;2.62;89.30957;938.8077;;;;
2019/12/24 08:09:52;;;;;;;11.1;8.4;;;;;;;2.92;88.55469;938.6658;;;;
2019/12/24 08:12:45;;;;;;;7.2;5.2;;;;;;;3.26;88.97461;938.6596;;;;
2019/12/24 08:14:36;;;;;;;4.1;3.3;;;;;;;3.38;84.76367;938.8226;;;;
2019/12/24 08:17:08;;;;;;;4.6;3.6;;;;;;;3.91;84.15234;938.9548;;;;
2019/12/24 08:19:34;;;;;;;8;5.7;;;;;;;4.41;80.98633;938.938;;;;
2019/12/24 08:22:02;;;;;;;9.4;7.2;;;;;;;4.44;80.26172;938.976;;;;
2019/12/24 08:24:29;;;;;;;9;7;;;;;;;4.2;79.67578;938.8365;;;;
2019/12/24 08:26:58;;;;;;;12.1;7.1;;;;;;;4.04;81.15234;938.7601;;;;
2019/12/24 08:29:32;;;;;;;10.6;8.4;;;;;;;4.29;80.46875;938.7137;;;;
2019/12/24 08:31:57;;;;;;;10;7.2;;;;;;;4.29;81.23438;938.5506;;;;
2019/12/24 08:34:30;;;;;;;8.9;6.2;;;;;;;4.24;80.96484;938.5348;;;;
2019/12/24 08:36:51;;;;;;;6.5;4.6;;;;;;;4.06;81.41406;938.4882;;;;
2019/12/24 08:40:10;;;;;;;6.9;4;;;;;;;4.12;82.14453;938.4777;;;;
2019/12/24 08:45:11;;;;;;;3.3;1.9;;;;;;;4.06;80.96484;938.2534;;;;
2019/12/24 08:47:33;;;;;;;5;2.7;;;;;;;4.15;81.21777;938.095;;;;
2019/12/24 08:50:10;;;;;;;3.5;1.8;;;;;;;4.16;81.8291;938.0709;;;;
2019/12/24 08:52:45;;;;;;;3.2;1.7;;;;;;;4.24;81.8877;938.0139;;;;
2019/12/24 08:55:19;;;;;;;2.3;1.6;;;;;;;4.34;80.67969;937.9886;;;;
2019/12/24 08:57:42;;;;;;;3.3;2.3;;;;;;;4.31;79.52734;937.9832;;;;
2019/12/24 09:00:11;;;;;;;1.7;1.4;;;;;;;4.04;77.93555;937.9164;;;;
2019/12/24 09:02:36;;;;;;;1.7;1.1;;;;;;;4.03;78.63086;937.9893;;;;
2019/12/24 09:05:08;;;;;;;2;1.5;;;;;;;4.35;80.63672;937.9684;;;;
2019/12/24 09:07:36;;;;;;;3.1;2.1;;;;;;;4.39;80.8125;937.9736;;;;
2019/12/24 09:12:48;;;;;;;8.4;5.6;;;;;;;4.14;83.70215;937.9299;;;;
2019/12/24 09:15:15;;;;;;;14.8;10.3;;;;;;;4.07;84.44141;937.9001;;;;
2019/12/24 09:17:46;;;;;;;16.6;11;;;;;;;4.18;85.08203;937.8633;;;;
2019/12/24 09:20:16;;;;;;;11.5;8.3;;;;;;;4.02;85.59082;937.7701;;;;
2019/12/24 09:22:51;;;;;;;12.5;8.9;;;;;;;3.99;85.69629;937.8144;;;;
2019/12/24 09:25:18;;;;;;;13.2;9.2;;;;;;;3.99;86.37109;937.7491;;;;
2019/12/24 09:27:51;;;;;;;15.7;10.4;;;;;;;3.89;86.06934;937.6575;;;;
2019/12/24 09:30:16;;;;;;;14.1;9.4;;;;;;;4;86.10449;937.6958;;;;
2019/12/24 09:32:46;;;;;;;14.5;9.5;;;;;;;4.21;85.29102;937.637;;;;
2019/12/24 09:35:11;;;;;;;9.9;6.8;;;;;;;4.42;82.46289;937.562;;;;
2019/12/24 09:37:35;;;;;;;7.4;5;;;;;;;4.5;81.02637;937.4525;;;;
2019/12/24 09:40:09;;;;;;;6.8;4.7;;;;;;;4.61;80.12305;937.4955;;;;
2019/12/24 09:42:37;;;;;;;5;2.8;;;;;;;4.62;77.47852;937.3247;;;;
2019/12/24 09:45:09;;;;;;;5.2;4.2;;;;;;;4.71;78.49902;937.3086;;;;
2019/12/24 09:47:37;;;;;;;9.1;6;;;;;;;4.89;81.19141;937.2849;;;;
2019/12/24 09:50:09;;;;;;;7.8;6.3;;;;;;;5.01;82.76758;937.1811;;;;
2019/12/24 09:52:38;;;;;;;4.3;3.6;;;;;;;5.04;81.19531;937.2223;;;;
2019/12/24 09:55:03;;;;;;;2.5;1.7;;;;;;;4.88;79.39648;937.0637;;;;
2019/12/24 09:57:28;;;;;;;3.1;2;;;;;;;4.82;80.70508;936.9791;;;;
2019/12/24 10:00:00;;;;;;;2;1.7;;;;;;;4.72;81.79883;937.1967;;;;
2019/12/24 10:02:27;;;;;;;2.6;2.2;;;;;;;4.85;82.80566;937.1597;;;;
2019/12/24 10:05:08;;;;;;;2.9;1.6;;;;;;;5;80.4668;937.0867;;;;
2019/12/24 10:07:41;;;;;;;8.5;4.5;;;;;;;5.08;81.77832;937.0633;;;;
2019/12/24 10:10:09;;;;;;;21.4;10.2;;;;;;;5.06;80.30957;936.9246;;;;
2019/12/24 10:12:34;;;;;;;9.1;5.9;;;;;;;5.19;83.20898;936.9202;;;;
2019/12/24 10:14:59;;;;;;;9.5;7;;;;;;;5.42;79.73438;936.7684;;;;
2019/12/24 10:17:38;;;;;;;8.8;5.2;;;;;;;5.48;79.82324;936.7106;;;;
2019/12/24 10:19:55;;;;;;;10.8;6.3;;;;;;;5.64;78.96191;936.7662;;;;
2019/12/24 10:22:20;;;;;;;6.9;4.3;;;;;;;5.49;79.3418;936.7324;;;;
2019/12/24 10:24:51;;;;;;;5.9;3.5;;;;;;;5.56;79.98535;936.639;;;;
2019/12/24 10:27:15;;;;;;;5.5;3.4;;;;;;;5.61;80.5918;936.6628;;;;
2019/12/24 10:29:48;;;;;;;2.9;2.1;;;;;;;5.51;78.78027;936.4547;;;;
2019/12/24 10:32:14;;;;;;;3.1;1.9;;;;;;;5.63;78.26074;936.36;;;;
2019/12/24 10:34:50;;;;;;;7.6;5.2;;;;;;;5.77;78.58008;936.2656;;;;
2019/12/24 10:37:18;;;;;;;4.8;3;;;;;;;5.73;77.93945;936.2961;;;;
2019/12/24 10:39:50;;;;;;;4;2.7;;;;;;;5.82;78.74707;936.248;;;;
2019/12/24 10:42:15;;;;;;;2.8;1.7;;;;;;;5.73;76.06348;936.2905;;;;
2019/12/24 10:44:41;;;;;;;2.7;1.9;;;;;;;5.88;73.90039;936.1956;;;;
2019/12/24 10:47:16;;;;;;;2.1;1.5;;;;;;;5.82;73.96973;936.1138;;;;
2019/12/24 10:49:35;;;;;;;1.9;1.5;;;;;;;5.88;73.94531;936.0781;;;;
2019/12/24 10:52:03;;;;;;;24.7;9.3;;;;;;;5.91;73.62402;935.9724;;;;
2019/12/24 10:57:05;;;;;;;19.5;7.5;;;;;;;6.2;73.62891;935.7056;;;;
2019/12/24 10:59:22;;;;;;;12;4.5;;;;;;;6.32;73.40137;935.7496;;;;
2019/12/24 11:01:47;;;;;;;9.4;4.3;;;;;;;6.52;74.73633;935.7761;;;;
2019/12/24 11:04:16;;;;;;;5.1;3.1;;;;;;;6.62;72.77344;935.697;;;;
2019/12/24 11:06:44;;;;;;;7.8;3.5;;;;;;;6.55;71.66406;935.6177;;;;
2019/12/24 11:09:09;;;;;;;4;2.6;;;;;;;6.63;72.33398;935.6125;;;;
2019/12/24 11:11:38;;;;;;;5.3;3.3;;;;;;;6.91;73.32129;935.5295;;;;
2019/12/24 11:14:01;;;;;;;4.2;3.3;;;;;;;7.22;72.29688;935.4081;;;;
2019/12/24 11:16:35;;;;;;;4.5;3.2;;;;;;;7.27;72.65723;935.3377;;;;
2019/12/24 11:19:11;;;;;;;3.2;1.7;;;;;;;7.14;68.96387;935.2719;;;;
2019/12/24 11:21:40;;;;;;;2.2;1.7;;;;;;;7.23;68.64844;935.1613;;;;
2019/12/24 11:24:14;;;;;;;2;1.5;;;;;;;7.31;70.78418;935.0938;;;;
2019/12/24 11:26:44;;;;;;;2.2;1.7;;;;;;;7.4;72.10059;935.0064;;;;
2019/12/24 11:29:15;;;;;;;6.9;4.8;;;;;;;7.59;72.75781;935.0889;;;;
2019/12/24 11:32:20;;;;;;;5.4;3.6;;;;;;;7.61;69.3457;934.9984;;;;
2019/12/24 11:34:44;;;;;;;2.3;1.9;;;;;;;7.28;70.83301;934.9578;;;;
2019/12/24 11:37:09;;;;;;;2.9;2.2;;;;;;;7.05;68.86914;934.861;;;;
2019/12/24 11:39:40;;;;;;;5.4;3.9;;;;;;;6.82;69.37598;934.814;;;;
2019/12/24 11:42:14;;;;;;;8.9;5.9;;;;;;;6.7;69.44727;934.7103;;;;
2019/12/24 11:44:43;;;;;;;8.4;6.3;;;;;;;7.08;70.4375;934.6597;;;;
2019/12/24 11:47:07;;;;;;;6.7;4.5;;;;;;;7.26;68.0332;934.693;;;;
2019/12/24 11:49:32;;;;;;;5.7;4.3;;;;;;;7.23;68.44629;934.7195;;;;
2019/12/24 11:52:04;;;;;;;6.8;4.9;;;;;;;7.34;68.09082;934.6151;;;;
2019/12/24 11:54:29;;;;;;;4.2;3.1;;;;;;;7.45;65.75;934.5616;;;;
2019/12/24 11:56:57;;;;;;;2.7;1.8;;;;;;;7.33;65.19824;934.5927;;;;
2019/12/24 11:59:28;;;;;;;3.3;2.1;;;;;;;7.22;64.21875;934.6622;;;;
2019/12/24 12:01:58;;;;;;;2.9;1.6;;;;;;;7.27;66.16406;934.6567;;;;
2019/12/24 12:04:33;;;;;;;2.1;1.4;;;;;;;7.4;68.25781;934.6666;;;;
2019/12/24 12:07:01;;;;;;;3.3;2;;;;;;;7.36;70.19043;934.7523;;;;
2019/12/24 12:09:25;;;;;;;9.1;6.2;;;;;;;7.36;68.00195;934.6066;;;;
2019/12/24 12:11:57;;;;;;;2.6;2;;;;;;;7.38;65.02344;934.6085;;;;
2019/12/24 12:14:29;;;;;;;3.5;2.8;;;;;;;7.43;70.23633;934.49;;;;
2019/12/24 12:16:54;;;;;;;4.2;2.5;;;;;;;7.48;72.24902;934.5009;;;;
2019/12/24 12:19:22;;;;;;;5.1;3.6;;;;;;;7.36;71.96875;934.5742;;;;
2019/12/24 12:21:48;;;;;;;5.4;3;;;;;;;7.18;76.2793;934.7327;;;;
2019/12/24 12:24:22;;;;;;;4.7;2.9;;;;;;;7.07;77.78711;934.7696;;;;
2019/12/24 12:26:56;;;;;;;3.9;2.9;;;;;;;6.98;79.15234;934.6965;;;;
2019/12/24 12:30:19;;;;;;;3.2;2.4;;;;;;;6.8;74.11621;934.697;;;;
2019/12/24 12:31:48;;;;;;;6.5;4.3;;;;;;;6.83;76.01367;934.5999;;;;
2019/12/24 12:34:14;;;;;;;3.1;2.2;;;;;;;6.9;72.75195;934.5297;;;;
2019/12/24 12:36:46;;;;;;;2.3;1.7;;;;;;;6.67;72.27051;934.4178;;;;
2019/12/24 12:39:18;;;;;;;2.4;1.3;;;;;;;6.35;74.52539;934.5215;;;;
2019/12/24 12:41:43;;;;;;;2.5;1.4;;;;;;;6.5;75.83984;934.6186;;;;
2019/12/24 12:44:19;;;;;;;1.3;0.9;;;;;;;5.92;76.22363;934.7139;;;;
2019/12/24 12:46:49;;;;;;;1.8;1.2;;;;;;;5.75;77.86426;934.7111;;;;
2019/12/24 12:49:12;;;;;;;3;1.2;;;;;;;5.62;79.80469;934.6838;;;;
2019/12/24 12:51:39;;;;;;;7.3;1.7;;;;;;;5.64;78.57813;934.6473;;;;
2019/12/24 12:54:11;;;;;;;2.1;1;;;;;;;5.43;79.91602;934.6091;;;;
2019/12/24 12:56:44;;;;;;;3;1.5;;;;;;;5.59;79.5166;934.5028;;;;
2019/12/24 12:59:13;;;;;;;3;1.4;;;;;;;5.68;79.30762;934.4789;;;;
2019/12/24 13:01:42;;;;;;;2.3;1.3;;;;;;;5.64;78.82617;934.4426;;;;
2019/12/24 13:04:34;;;;;;;2.6;1.5;;;;;;;5.7;78.99414;934.5142;;;;
2019/12/24 13:07:07;;;;;;;7.5;3.4;;;;;;;5.96;78.77148;934.4199;;;;
2019/12/24 13:09:38;;;;;;;9.8;2.4;;;;;;;6.17;79.28809;934.2419;;;;
2019/12/24 13:12:00;;;;;;;4.3;1.8;;;;;;;6.28;80.01855;934.233;;;;
2019/12/24 13:14:25;;;;;;;2.3;1.7;;;;;;;6.24;78.55176;934.2109;;;;
2019/12/24 13:17:00;;;;;;;2.5;1.7;;;;;;;6.07;80.2959;933.968;;;;
2019/12/24 13:19:29;;;;;;;1.7;1.2;;;;;;;6.02;77.39551;933.8161;;;;
2019/12/24 13:21:55;;;;;;;11.1;9.2;;;;;;;6.04;78.21094;933.7556;;;;
2019/12/24 13:24:23;;;;;;;12.6;10.3;;;;;;;5.92;76.57324;933.6369;;;;
2019/12/24 13:26:50;;;;;;;8.6;6.6;;;;;;;6.08;78.08105;933.5129;;;;
2019/12/24 13:29:18;;;;;;;1.7;1.3;;;;;;;5.91;76.15625;933.3926;;;;
2019/12/24 13:31:44;;;;;;;11.6;8.5;;;;;;;6.05;77.99707;933.6008;;;;
2019/12/24 13:34:10;;;;;;;12.7;8.3;;;;;;;6.25;79.49316;933.6602;;;;
2019/12/24 13:36:47;;;;;;;8.9;7;;;;;;;6.19;80.22949;933.7505;;;;
2019/12/24 13:39:11;;;;;;;8.6;6.1;;;;;;;6.3;80.0918;933.7994;;;;
2019/12/24 13:41:42;;;;;;;13.3;10.5;;;;;;;6.48;80.37207;933.5909;;;;
2019/12/24 13:44:10;;;;;;;6.7;4.3;;;;;;;6.53;80.84668;933.5989;;;;
2019/12/24 13:46:37;;;;;;;46.8;38.4;;;;;;;6.34;77.40723;933.4128;;;;
2019/12/24 13:49:04;;;;;;;4.3;2.3;;;;;;;6.22;80.24414;933.4311;;;;
2019/12/24 13:51:29;;;;;;;5.2;2.2;;;;;;;6.41;80.39258;933.4434;;;;
2019/12/24 13:54:00;;;;;;;30.7;23.3;;;;;;;6.49;81.20898;933.3744;;;;
2019/12/24 13:56:28;;;;;;;34;24.5;;;;;;;6.46;79.97363;933.3943;;;;
2019/12/24 13:58:54;;;;;;;20;13.7;;;;;;;6.43;79.60645;933.3932;;;;
2019/12/24 14:01:20;;;;;;;7.9;4.8;;;;;;;6.08;77.93652;933.4465;;;;
2019/12/24 14:03:50;;;;;;;3;1.9;;;;;;;5.87;81.63477;933.4933;;;;
2019/12/24 14:07:17;;;;;;;22.8;15.9;;;;;;;5.93;82.82227;933.3826;;;;
2019/12/24 14:08:49;;;;;;;23.7;15.1;;;;;;;6.07;81.68652;933.3958;;;;
2019/12/24 14:11:22;;;;;;;2.8;1.4;;;;;;;5.88;81.36621;933.3513;;;;
2019/12/24 14:13:49;;;;;;;42.8;29;;;;;;;5.9;82.08301;933.4193;;;;
2019/12/24 14:16:12;;;;;;;10.8;7.9;;;;;;;5.96;81.95703;933.2598;;;;
2019/12/24 14:18:40;;;;;;;6.7;3.6;;;;;;;6.02;83.4043;933.3672;;;;
2019/12/24 14:21:24;;;;;;;5.4;3.5;;;;;;;6.12;82.82617;933.3769;;;;
2019/12/24 14:23:44;;;;;;;10.9;8.3;;;;;;;6.28;83.56836;933.4584;;;;
2019/12/24 14:26:09;;;;;;;13.1;6.7;;;;;;;6.39;83.95117;933.4982;;;;
2019/12/24 14:28:34;;;;;;;8.9;6.3;;;;;;;6.42;83.7666;933.574;;;;
2019/12/24 14:31:00;;;;;;;7.1;4.7;;;;;;;6.48;84.00293;933.7048;;;;
2019/12/24 14:33:28;;;;;;;11.6;8.6;;;;;;;6.43;84.54883;933.7324;;;;
2019/12/24 14:35:57;;;;;;;8.7;6.4;;;;;;;6.51;84.82324;933.8619;;;;
2019/12/24 14:38:33;;;;;;;7;4.5;;;;;;;6.54;84.85254;933.8387;;;;
2019/12/24 14:41:05;;;;;;;6.2;4.8;;;;;;;6.59;84.47656;934.0206;;;;
2019/12/24 14:43:35;;;;;;;5;3.3;;;;;;;6.62;83.52051;933.8894;;;;
2019/12/24 14:46:00;;;;;;;4.2;3.4;;;;;;;6.62;82.77344;934.0871;;;;
2019/12/24 14:48:28;;;;;;;13.7;9.5;;;;;;;6.42;84.36426;933.9892;;;;
2019/12/24 14:50:56;;;;;;;13.5;11.2;;;;;;;6.34;84.77734;933.9352;;;;
2019/12/24 14:53:24;;;;;;;17.9;14.6;;;;;;;6.36;84.72461;934.1064;;;;
2019/12/24 14:55:48;;;;;;;13;8.7;;;;;;;6.44;84.92383;934.0876;;;;
2019/12/24 14:58:16;;;;;;;18.7;14.1;;;;;;;6.49;85.47363;934.3661;;;;
2019/12/24 15:00:44;;;;;;;20.7;15.3;;;;;;;6.44;86.10938;934.4387;;;;
2019/12/24 15:03:12;;;;;;;9;6.4;;;;;;;6.47;85.73047;934.3594;;;;
2019/12/24 15:05:41;;;;;;;9;7.3;;;;;;;6.46;85.79785;934.5553;;;;
2019/12/24 15:08:07;;;;;;;6.5;4.8;;;;;;;6.48;85.49609;934.6562;;;;
2019/12/24 15:10:38;;;;;;;10;8.2;;;;;;;6.49;84.4248;934.707;;;;
2019/12/24 15:13:19;;;;;;;20.9;18.4;;;;;;;6.28;86.08984;934.7216;;;;
2019/12/24 15:15:43;;;;;;;5.5;3.9;;;;;;;6.42;86.07129;934.9619;;;;
2019/12/24 15:18:11;;;;;;;5.9;4.5;;;;;;;6.42;86.03809;934.9666;;;;
2019/12/24 15:20:37;;;;;;;6.8;5.6;;;;;;;6.34;85.80859;934.7513;;;;
2019/12/24 15:23:19;;;;;;;8.1;6.2;;;;;;;6.16;86.89063;935.1846;;;;
2019/12/24 15:25:31;;;;;;;8.8;6.8;;;;;;;6.09;87.45313;935.5507;;;;
2019/12/24 15:28:00;;;;;;;9.9;7.3;;;;;;;6.19;87.20215;935.1046;;;;
2019/12/24 15:30:24;;;;;;;59.6;30.7;;;;;;;5.94;88.06543;935.5629;;;;
2019/12/24 15:32:50;;;;;;;169.7;137;;;;;;;5.77;88.47266;935.4299;;;;
2019/12/24 15:35:17;;;;;;;11.8;8.8;;;;;;;5.7;89.17773;935.6509;;;;
2019/12/24 15:37:49;;;;;;;34.9;22.9;;;;;;;5.85;88.47559;935.3711;;;;
2019/12/24 15:40:32;;;;;;;7.8;6;;;;;;;5.72;88.7207;935.4903;;;;
2019/12/24 15:42:57;;;;;;;14.4;11;;;;;;;5.87;88.40234;935.6417;;;;
2019/12/24 15:45:29;;;;;;;9.6;7.4;;;;;;;6.04;87.21777;935.6223;;;;
2019/12/24 15:47:51;;;;;;;13.2;9.2;;;;;;;6.14;86.77441;935.4956;;;;
2019/12/24 15:50:19;;;;;;;8.4;6.6;;;;;;;5.98;87.38574;935.6017;;;;
2019/12/24 15:52:42;;;;;;;8.3;5.2;;;;;;;6.03;86.97656;935.4869;;;;
2019/12/24 15:55:13;;;;;;;9.4;6.9;;;;;;;6.07;86.69238;935.5945;;;;
2019/12/24 15:57:38;;;;;;;8.9;6.3;;;;;;;5.98;86.60449;935.7131;;;;
2019/12/24 16:00:15;;;;;;;8.8;7;;;;;;;5.9;87.16504;935.9656;;;;
2019/12/24 16:02:44;;;;;;;22.5;16.9;;;;;;;5.71;87.71191;935.6566;;;;
2019/12/24 16:05:14;;;;;;;34.4;25.4;;;;;;;5.47;89.1084;935.9681;;;;
2019/12/24 16:07:38;;;;;;;13;10.8;;;;;;;5.53;89.23438;936.0201;;;;
2019/12/24 16:10:05;;;;;;;34.5;29.6;;;;;;;5.42;89.69531;935.9771;;;;
2019/12/24 16:12:34;;;;;;;19.2;14.4;;;;;;;5.45;90.00684;936.1224;;;;